Sanko Confidence — A8DU7 — position and weather

sailwx.info

Track history (hours):
 
Tides and Currents Weather Stations Pressure Air Temp Water Temp Dewpoint Dewpoint Depression Visibility Wind Speed Wind Dir Waves Ship Positions

Sanko Confidence

Last reported at 2018-Feb-18 20:37 UTC. Time now 2018-Feb-19 04:31 UTC.
Position N 09°13' W 079°56'.

Length 197 m; draft 12 m.

Type: Ship (hazmat cat D). MMSI: 636011652.

Date/timePositionNaut miles runAvg speedWind from/ knotsBaromVisibWave heightAir tempDewpointWater temp
2018-Feb-18 20:37N 09°13' W 079°56'0 0.0
2018-Feb-18 18:59N 09°13' W 079°56'0 0.0
2018-Feb-18 18:28N 09°13' W 079°56'0 0.0
2018-Feb-18 17:05N 09°13' W 079°56'0 0.0
2018-Feb-18 16:41N 09°13' W 079°56'0 0.0
2018-Feb-18 16:19N 09°13' W 079°56'0 0.0
2018-Feb-18 15:56N 09°13' W 079°56'0 0.0
2018-Feb-18 15:25N 09°13' W 079°56'0 0.0
2018-Feb-18 13:32N 09°13' W 079°56'0 0.2
2018-Feb-18 13:26N 09°13' W 079°56'0 0.3
2018-Feb-18 12:59N 09°13' W 079°56'0 0.3
2018-Feb-18 12:27N 09°13' W 079°56'1 1.2
2018-Feb-18 12:00N 09°13' W 079°56'3 4.1
2018-Feb-18 11:22N 09°16' W 079°55'0 1.2
2018-Feb-18 11:00N 09°16' W 079°55'1 0.5
2018-Feb-18 08:46N 09°17' W 079°55'1 3.1
2018-Feb-18 08:30N 09°18' W 079°55'4 7.5
2018-Feb-18 08:00N 09°22' W 079°55'3 5.1
2018-Feb-18 07:30N 09°25' W 079°55'3 5.0
2018-Feb-18 07:00N 09°27' W 079°55'1 2.4
2018-Feb-18 06:30N 09°28' W 079°56'0 0.3
2018-Feb-18 05:54N 09°28' W 079°56'0 0.1
2018-Feb-18 05:27N 09°28' W 079°56'0 0.0
2018-Feb-18 04:30N 09°28' W 079°56'0 0.0
2018-Feb-18 04:00N 09°28' W 079°56'0 0.0
2018-Feb-18 00:36N 09°28' W 079°56'0 0.0
2018-Feb-17 22:15N 09°28' W 079°56'0 0.0
2018-Feb-17 21:51N 09°28' W 079°56'0 0.0
2018-Feb-17 21:27N 09°28' W 079°56'0 0.0
2018-Feb-17 21:00N 09°28' W 079°56'0 0.0
2018-Feb-17 19:54N 09°28' W 079°56'0 0.0
2018-Feb-17 19:30N 09°28' W 079°56'0 0.0
2018-Feb-17 18:42N 09°28' W 079°56'0 0.0
2018-Feb-17 18:21N 09°28' W 079°56'0 0.0
2018-Feb-17 05:30N 09°28' W 079°56'0 0.1
2018-Feb-17 02:31N 09°28' W 079°56'0 1.0
2018-Feb-17 02:30N 09°28' W 079°56'1 1.0
2018-Feb-17 01:57N 09°28' W 079°55'  
2018-Feb-13 03:54N 16°24' W 062°33'513.3
2018-Feb-13 03:30N 16°26' W 062°28'713.1
2018-Feb-13 02:59N 16°28' W 062°21'613.0
2018-Feb-13 02:30N 16°30' W 062°15'613.0
2018-Feb-13 02:00N 16°32' W 062°08'713.1
2018-Feb-13 01:30N 16°34' W 062°02'612.8
2018-Feb-13 01:00N 16°37' W 061°56'713.2
2018-Feb-13 00:30N 16°41' W 061°50'612.8
2018-Feb-13 00:00N 16°44' W 061°44'612.9
2018-Feb-12 23:30N 16°47' W 061°38'612.9
2018-Feb-12 23:00N 16°50' W 061°33'713.0
2018-Feb-12 22:30N 16°53' W 061°27'612.6
2018-Feb-12 22:00N 16°57' W 061°21'612.4
2018-Feb-12 21:30N 17°00' W 061°16'612.5
2018-Feb-12 21:00N 17°03' W 061°10'612.4
2018-Feb-12 20:29N 17°07' W 061°04'612.4
2018-Feb-12 19:58N 17°10' W 060°58'  
Track history (hours):
 
Tides and Currents Weather Stations Pressure Air Temp Water Temp Dewpoint Dewpoint Depression Visibility Wind Speed Wind Dir Waves Ship Positions

Sanko Confidence

Last reported at 2018-Feb-18 20:37 UTC. Time now 2018-Feb-19 04:31 UTC.
Position N 09°13' W 079°56'.

Length 197 m; draft 12 m.

Type: Ship (hazmat cat D). MMSI: 636011652.

Date/timePositionNaut miles runAvg speedWind from/ knotsBaromVisibWave heightAir tempDewpointWater temp
2018-Feb-18 20:37N 09°13' W 079°56'0 0.0
2018-Feb-18 18:59N 09°13' W 079°56'0 0.0
2018-Feb-18 18:28N 09°13' W 079°56'0 0.0
2018-Feb-18 17:05N 09°13' W 079°56'0 0.0
2018-Feb-18 16:41N 09°13' W 079°56'0 0.0
2018-Feb-18 16:19N 09°13' W 079°56'0 0.0
2018-Feb-18 15:56N 09°13' W 079°56'0 0.0
2018-Feb-18 15:25N 09°13' W 079°56'0 0.0
2018-Feb-18 13:32N 09°13' W 079°56'0 0.2
2018-Feb-18 13:26N 09°13' W 079°56'0 0.3
2018-Feb-18 12:59N 09°13' W 079°56'0 0.3
2018-Feb-18 12:27N 09°13' W 079°56'1 1.2
2018-Feb-18 12:00N 09°13' W 079°56'3 4.1
2018-Feb-18 11:22N 09°16' W 079°55'0 1.2
2018-Feb-18 11:00N 09°16' W 079°55'1 0.5
2018-Feb-18 08:46N 09°17' W 079°55'1 3.1
2018-Feb-18 08:30N 09°18' W 079°55'4 7.5
2018-Feb-18 08:00N 09°22' W 079°55'3 5.1
2018-Feb-18 07:30N 09°25' W 079°55'3 5.0
2018-Feb-18 07:00N 09°27' W 079°55'1 2.4
2018-Feb-18 06:30N 09°28' W 079°56'0 0.3
2018-Feb-18 05:54N 09°28' W 079°56'0 0.1
2018-Feb-18 05:27N 09°28' W 079°56'0 0.0
2018-Feb-18 04:30N 09°28' W 079°56'0 0.0
2018-Feb-18 04:00N 09°28' W 079°56'0 0.0
2018-Feb-18 00:36N 09°28' W 079°56'0 0.0
2018-Feb-17 22:15N 09°28' W 079°56'0 0.0
2018-Feb-17 21:51N 09°28' W 079°56'0 0.0
2018-Feb-17 21:27N 09°28' W 079°56'0 0.0
2018-Feb-17 21:00N 09°28' W 079°56'0 0.0
2018-Feb-17 19:54N 09°28' W 079°56'0 0.0
2018-Feb-17 19:30N 09°28' W 079°56'0 0.0
2018-Feb-17 18:42N 09°28' W 079°56'0 0.0
2018-Feb-17 18:21N 09°28' W 079°56'0 0.0
2018-Feb-17 05:30N 09°28' W 079°56'0 0.1
2018-Feb-17 02:31N 09°28' W 079°56'0 1.0
2018-Feb-17 02:30N 09°28' W 079°56'1 1.0
2018-Feb-17 01:57N 09°28' W 079°55'  
2018-Feb-13 03:54N 16°24' W 062°33'513.3
2018-Feb-13 03:30N 16°26' W 062°28'713.1
2018-Feb-13 02:59N 16°28' W 062°21'613.0
2018-Feb-13 02:30N 16°30' W 062°15'613.0
2018-Feb-13 02:00N 16°32' W 062°08'713.1
2018-Feb-13 01:30N 16°34' W 062°02'612.8
2018-Feb-13 01:00N 16°37' W 061°56'713.2
2018-Feb-13 00:30N 16°41' W 061°50'612.8
2018-Feb-13 00:00N 16°44' W 061°44'612.9
2018-Feb-12 23:30N 16°47' W 061°38'612.9
2018-Feb-12 23:00N 16°50' W 061°33'713.0
2018-Feb-12 22:30N 16°53' W 061°27'612.6
2018-Feb-12 22:00N 16°57' W 061°21'612.4
2018-Feb-12 21:30N 17°00' W 061°16'612.5
2018-Feb-12 21:00N 17°03' W 061°10'612.4
2018-Feb-12 20:29N 17°07' W 061°04'612.4
2018-Feb-12 19:58N 17°10' W 060°58'  

Dump ship's entire track history